createdAt,value
2023-02-16T00:01:26.765Z,82.54
2023-02-16T00:03:58.064Z,83.49
2023-02-16T00:06:27.061Z,84.00
2023-02-16T00:08:57.878Z,84.39
2023-02-16T00:11:49.289Z,85.56
2023-02-16T00:14:17.618Z,86.92
2023-02-16T00:16:45.930Z,87.14
2023-02-16T00:19:24.948Z,88.05
2023-02-16T00:21:56.666Z,88.33
2023-02-16T00:24:25.683Z,88.66
2023-02-16T00:26:55.313Z,89.05
2023-02-16T00:29:27.277Z,89.24
2023-02-16T00:31:56.928Z,89.21
2023-02-16T00:34:35.197Z,89.76
2023-02-16T00:37:05.481Z,89.90
2023-02-16T00:39:34.394Z,90.42
2023-02-16T00:42:05.591Z,90.72
2023-02-16T00:44:37.454Z,90.48
2023-02-16T00:47:19.126Z,90.58
2023-02-16T00:49:50.022Z,90.94
2023-02-16T00:52:33.588Z,90.92
2023-02-16T00:55:03.959Z,91.46
2023-02-16T00:57:36.190Z,91.79
2023-02-16T01:00:14.258Z,92.07
2023-02-16T01:02:42.827Z,91.75
2023-02-16T01:05:13.584Z,92.29
2023-02-16T01:07:59.259Z,92.83
2023-02-16T01:10:46.940Z,92.96
2023-02-16T01:13:16.109Z,93.06
2023-02-16T01:15:44.790Z,92.81
2023-02-16T01:18:14.913Z,92.99
2023-02-16T01:20:45.141Z,92.86
2023-02-16T01:23:13.297Z,93.31
2023-02-16T01:25:42.322Z,92.76
2023-02-16T01:28:19.777Z,93.40
2023-02-16T01:30:47.877Z,93.70
2023-02-16T01:33:16.051Z,93.19
2023-02-16T01:35:46.894Z,93.31
2023-02-16T01:38:19.801Z,92.91
2023-02-16T01:40:56.870Z,93.84
2023-02-16T01:43:30.324Z,92.97
2023-02-16T01:46:04.051Z,93.15
2023-02-16T01:48:33.525Z,93.58
2023-02-16T01:51:08.541Z,93.87
2023-02-16T01:53:41.264Z,94.81
2023-02-16T01:56:21.355Z,94.42
2023-02-16T01:58:53.791Z,94.81
2023-02-16T02:01:50.338Z,95.06
2023-02-16T02:04:48.646Z,95.65
2023-02-16T02:07:25.562Z,96.27
2023-02-16T02:10:03.314Z,96.17
2023-02-16T02:12:41.609Z,96.92
2023-02-16T02:15:11.711Z,96.93
2023-02-16T02:17:40.382Z,97.19
2023-02-16T02:20:17.662Z,97.99
2023-02-16T02:23:34.241Z,99.00
2023-02-16T02:26:44.657Z,99.36
2023-02-16T02:29:56.166Z,99.11
2023-02-16T02:32:34.641Z,99.10
2023-02-16T02:35:15.392Z,99.59
2023-02-16T02:37:51.551Z,100.00
2023-02-16T02:40:31.631Z,100.00
2023-02-16T02:43:08.848Z,100.00
2023-02-16T02:45:45.990Z,100.00
2023-02-16T02:48:14.056Z,100.00
2023-02-16T02:51:04.513Z,100.00
2023-02-16T02:53:33.260Z,100.00
2023-02-16T02:56:21.366Z,100.00
2023-02-16T02:59:11.925Z,100.00
2023-02-16T03:01:45.248Z,100.00
2023-02-16T03:04:17.160Z,100.00
2023-02-16T03:06:50.164Z,100.00
2023-02-16T03:09:19.183Z,100.00
2023-02-16T03:12:08.654Z,100.00
2023-02-16T03:14:40.825Z,100.00
2023-02-16T03:17:31.633Z,100.00
2023-02-16T03:20:19.094Z,100.00
2023-02-16T03:23:04.901Z,100.00
2023-02-16T03:25:53.218Z,100.00
2023-02-16T03:28:42.030Z,100.00
2023-02-16T03:31:13.426Z,100.00
2023-02-16T03:33:44.018Z,100.00
2023-02-16T03:36:12.526Z,100.00
2023-02-16T03:38:40.996Z,100.00
2023-02-16T03:41:09.244Z,100.00
2023-02-16T03:43:38.878Z,100.00
2023-02-16T03:46:07.111Z,100.00
2023-02-16T03:48:35.276Z,100.00
2023-02-16T03:51:05.133Z,100.00
2023-02-16T03:53:33.520Z,100.00
2023-02-16T03:56:01.580Z,100.00
2023-02-16T03:58:29.669Z,100.00
2023-02-16T04:00:59.070Z,100.00
2023-02-16T04:03:27.322Z,100.00
2023-02-16T04:05:56.490Z,100.00
2023-02-16T04:08:26.168Z,100.00
2023-02-16T04:10:56.944Z,100.00
2023-02-16T04:13:24.007Z,100.00
2023-02-16T04:15:52.066Z,100.00
2023-02-16T04:18:20.149Z,100.00
2023-02-16T04:20:48.135Z,100.00
2023-02-16T04:23:16.178Z,100.00
2023-02-16T04:25:45.793Z,100.00
2023-02-16T04:28:14.259Z,100.00
2023-02-16T04:30:42.487Z,100.00
2023-02-16T04:33:10.863Z,100.00
2023-02-16T04:35:39.057Z,100.00
2023-02-16T04:38:07.138Z,100.00
2023-02-16T04:40:35.279Z,100.00
2023-02-16T04:43:05.498Z,100.00
2023-02-16T04:45:33.728Z,100.00
2023-02-16T04:48:01.728Z,100.00
2023-02-16T04:50:29.833Z,100.00
2023-02-16T04:52:57.996Z,100.00
2023-02-16T04:55:26.187Z,100.00
2023-02-16T04:57:54.436Z,100.00
2023-02-16T05:00:24.057Z,100.00
2023-02-16T05:02:52.202Z,100.00
2023-02-16T05:05:20.318Z,100.00
2023-02-16T05:07:48.303Z,100.00
2023-02-16T05:10:16.399Z,100.00
2023-02-16T05:13:01.971Z,100.00
2023-02-16T05:15:31.899Z,100.00
2023-02-16T05:17:59.945Z,100.00
2023-02-16T05:20:41.926Z,100.00
2023-02-16T05:23:10.060Z,100.00
2023-02-16T05:25:38.129Z,100.00
2023-02-16T05:28:06.543Z,100.00
2023-02-16T05:30:36.022Z,100.00
2023-02-16T05:33:04.092Z,100.00
2023-02-16T05:35:32.206Z,100.00
2023-02-16T05:38:00.283Z,100.00
2023-02-16T05:40:28.749Z,100.00
2023-02-16T05:42:57.104Z,100.00
2023-02-16T05:45:25.162Z,100.00
2023-02-16T05:47:54.732Z,100.00
2023-02-16T05:50:22.861Z,100.00
2023-02-16T05:52:50.914Z,100.00
2023-02-16T05:55:19.577Z,100.00
2023-02-16T05:57:47.961Z,100.00
2023-02-16T06:00:17.373Z,100.00
2023-02-16T06:02:45.660Z,100.00
2023-02-16T06:05:15.272Z,100.00
2023-02-16T06:07:43.387Z,100.00
2023-02-16T06:10:11.411Z,100.00
2023-02-16T06:12:39.515Z,100.00
2023-02-16T06:15:08.004Z,100.00
2023-02-16T06:17:36.187Z,100.00
2023-02-16T06:20:04.969Z,100.00
2023-02-16T06:22:34.517Z,100.00
2023-02-16T06:25:02.632Z,100.00
2023-02-16T06:27:31.429Z,100.00
2023-02-16T06:29:59.502Z,100.00
2023-02-16T06:32:27.938Z,100.00
2023-02-16T06:34:56.187Z,100.00
2023-02-16T06:37:25.492Z,100.00
2023-02-16T06:39:55.109Z,100.00
2023-02-16T06:42:23.183Z,100.00
2023-02-16T06:44:51.427Z,100.00
2023-02-16T06:47:19.508Z,100.00
2023-02-16T06:49:47.960Z,100.00
2023-02-16T06:52:16.261Z,100.00
2023-02-16T06:54:44.846Z,100.00
2023-02-16T06:57:14.257Z,100.00
2023-02-16T06:59:42.398Z,100.00
2023-02-16T07:02:12.897Z,100.00
2023-02-16T07:04:40.911Z,98.85
2023-02-16T07:07:09.377Z,98.80
2023-02-16T07:09:37.794Z,97.46
2023-02-16T07:12:07.359Z,98.14
2023-02-16T07:14:36.903Z,97.80
2023-02-16T07:17:05.014Z,98.42
2023-02-16T07:19:33.857Z,98.62
2023-02-16T07:22:02.723Z,97.26
2023-02-16T07:24:30.863Z,96.43
2023-02-16T07:26:59.009Z,96.75
2023-02-16T07:29:27.287Z,96.62
2023-02-16T07:31:57.861Z,97.29
2023-02-16T07:34:26.004Z,97.63
2023-02-16T07:36:54.080Z,95.80
2023-02-16T07:39:22.141Z,92.99
2023-02-16T07:41:50.903Z,92.74
2023-02-16T07:44:19.049Z,91.95
2023-02-16T07:46:47.711Z,91.51
2023-02-16T07:49:17.281Z,88.55
2023-02-16T07:51:45.416Z,85.24
2023-02-16T07:54:13.520Z,83.46
2023-02-16T07:56:41.645Z,85.24
2023-02-16T07:59:09.785Z,84.57
2023-02-16T08:01:40.091Z,82.81
2023-02-16T08:04:08.379Z,83.64
2023-02-16T08:06:38.121Z,81.09
2023-02-16T08:09:06.654Z,79.17
2023-02-16T08:11:34.787Z,78.18
2023-02-16T08:14:03.144Z,77.39
2023-02-16T08:16:31.563Z,76.17
2023-02-16T08:19:01.573Z,75.00
2023-02-16T08:21:31.646Z,75.07
2023-02-16T08:24:03.029Z,74.56
2023-02-16T08:26:35.563Z,74.37
2023-02-16T08:29:03.804Z,73.54
2023-02-16T08:31:35.288Z,73.95
2023-02-16T08:34:04.454Z,73.19
2023-02-16T08:36:34.696Z,73.86
2023-02-16T08:39:07.190Z,74.25
2023-02-16T08:41:38.068Z,71.69
2023-02-16T08:44:07.842Z,68.58
2023-02-16T08:46:37.491Z,67.45
2023-02-16T08:49:05.653Z,66.85
2023-02-16T08:51:35.967Z,67.09
2023-02-16T08:54:08.590Z,67.74
2023-02-16T08:56:37.207Z,67.95
2023-02-16T08:59:05.335Z,67.83
2023-02-16T09:01:33.576Z,68.01
2023-02-16T09:04:01.721Z,66.26
2023-02-16T09:06:30.428Z,67.39
2023-02-16T09:08:59.255Z,67.40
2023-02-16T09:11:28.860Z,67.04
2023-02-16T09:13:57.591Z,66.76
2023-02-16T09:16:28.135Z,66.48
2023-02-16T09:18:57.731Z,65.49
2023-02-16T09:21:27.025Z,64.64
2023-02-16T09:23:58.365Z,64.83
2023-02-16T09:26:29.346Z,64.34
2023-02-16T09:28:58.825Z,63.70
2023-02-16T09:31:29.429Z,64.19
2023-02-16T09:34:01.190Z,64.03
2023-02-16T09:36:29.789Z,63.46
2023-02-16T09:38:58.499Z,63.42
2023-02-16T09:41:37.612Z,63.12
2023-02-16T09:44:15.871Z,63.13
2023-02-16T09:46:44.486Z,61.54
2023-02-16T09:49:22.488Z,61.81
2023-02-16T09:51:55.570Z,61.58
2023-02-16T09:54:34.846Z,61.53
2023-02-16T09:57:13.612Z,61.65
2023-02-16T09:59:49.311Z,60.80
2023-02-16T10:02:45.901Z,60.03
2023-02-16T10:05:21.409Z,59.01
2023-02-16T10:07:58.864Z,59.36
2023-02-16T10:10:31.781Z,58.76
2023-02-16T10:13:06.248Z,57.94
2023-02-16T10:15:40.274Z,57.59
2023-02-16T10:18:15.298Z,57.77
2023-02-16T10:20:49.631Z,56.38
2023-02-16T10:23:38.253Z,56.59
2023-02-16T10:26:15.499Z,56.35
2023-02-16T10:28:48.320Z,56.85
2023-02-16T10:31:25.147Z,56.66
2023-02-16T10:34:08.280Z,57.03
2023-02-16T10:36:51.983Z,56.36
2023-02-16T10:39:25.929Z,56.86
2023-02-16T10:42:03.684Z,55.45
2023-02-16T10:44:40.382Z,54.61
2023-02-16T10:47:24.030Z,54.33
2023-02-16T10:49:53.138Z,54.78
2023-02-16T10:52:22.248Z,54.39
2023-02-16T10:54:51.014Z,53.74
2023-02-16T10:57:27.543Z,53.37
2023-02-16T11:00:00.824Z,52.25
2023-02-16T11:02:36.698Z,52.04
2023-02-16T11:05:36.106Z,52.51
2023-02-16T11:08:05.221Z,51.44
2023-02-16T11:10:40.503Z,51.17
2023-02-16T11:13:19.401Z,50.69
2023-02-16T11:15:54.972Z,51.14
2023-02-16T11:18:33.148Z,51.23
2023-02-16T11:21:03.536Z,50.71
2023-02-16T11:23:32.986Z,50.12
2023-02-16T11:26:04.220Z,49.40
2023-02-16T11:28:35.415Z,49.21
2023-02-16T11:31:17.914Z,50.00
2023-02-16T11:33:58.868Z,49.66
2023-02-16T11:36:33.819Z,49.66
2023-02-16T11:39:07.170Z,49.55
2023-02-16T11:41:36.939Z,48.58
2023-02-16T11:44:05.631Z,46.95
2023-02-16T11:46:42.599Z,47.35
2023-02-16T11:49:31.379Z,47.31
2023-02-16T11:52:00.813Z,48.55
2023-02-16T11:54:28.917Z,47.97
2023-02-16T11:57:08.538Z,47.76
2023-02-16T11:59:39.186Z,47.09
2023-02-16T12:02:35.192Z,47.66
2023-02-16T12:05:20.746Z,46.69
2023-02-16T12:08:06.596Z,47.26
2023-02-16T12:10:44.435Z,46.68
2023-02-16T12:13:23.426Z,46.95
2023-02-16T12:16:00.977Z,46.53
2023-02-16T12:18:38.986Z,46.13
2023-02-16T12:21:25.098Z,46.39
2023-02-16T12:24:05.055Z,46.54
2023-02-16T12:26:41.668Z,46.38
2023-02-16T12:29:25.018Z,46.42
2023-02-16T12:32:13.861Z,46.00
2023-02-16T12:34:58.844Z,46.08
2023-02-16T12:37:36.066Z,45.92
2023-02-16T12:40:19.125Z,46.79
2023-02-16T12:43:04.307Z,45.79
2023-02-16T12:45:37.630Z,46.40
2023-02-16T12:48:31.568Z,46.23
2023-02-16T12:51:04.964Z,45.78
2023-02-16T12:53:44.723Z,45.58
2023-02-16T12:56:19.523Z,45.38
2023-02-16T12:58:53.561Z,45.17
2023-02-16T13:01:26.171Z,44.77
2023-02-16T13:03:58.693Z,44.64
2023-02-16T13:06:34.105Z,44.95
2023-02-16T13:09:13.654Z,44.55
2023-02-16T13:11:48.062Z,45.05
2023-02-16T13:14:21.533Z,44.82
2023-02-16T13:16:57.108Z,44.79
2023-02-16T13:19:25.341Z,44.97
2023-02-16T13:22:24.424Z,44.54
2023-02-16T13:25:05.504Z,44.86
2023-02-16T13:27:46.747Z,44.12
2023-02-16T13:31:07.374Z,44.33
2023-02-16T13:33:51.817Z,44.14
2023-02-16T13:36:37.308Z,43.72
2023-02-16T13:39:32.173Z,43.86
2023-02-16T13:42:36.074Z,43.56
2023-02-16T13:45:11.788Z,44.02
2023-02-16T13:47:42.137Z,43.53
2023-02-16T13:50:28.221Z,43.74
2023-02-16T13:52:58.763Z,43.68
2023-02-16T13:55:32.246Z,43.98
2023-02-16T13:58:05.858Z,43.56
2023-02-16T14:00:38.323Z,43.77
2023-02-16T14:03:13.422Z,44.17
2023-02-16T14:05:43.917Z,43.96
2023-02-16T14:08:21.274Z,43.39
2023-02-16T14:11:21.844Z,43.57
2023-02-16T14:13:52.242Z,43.93
2023-02-16T14:16:34.618Z,43.55
2023-02-16T14:19:19.703Z,43.68
2023-02-16T14:21:50.440Z,43.65
2023-02-16T14:24:32.984Z,42.63
2023-02-16T14:27:04.251Z,43.05
2023-02-16T14:29:37.862Z,43.64
2023-02-16T14:32:18.315Z,43.83
2023-02-16T14:34:57.242Z,43.81
2023-02-16T14:37:36.894Z,44.10
2023-02-16T14:40:16.320Z,44.58
2023-02-16T14:43:05.012Z,44.30
2023-02-16T14:46:00.871Z,44.29
2023-02-16T14:48:53.115Z,43.94
2023-02-16T14:51:45.459Z,44.47
2023-02-16T14:54:49.643Z,44.26
2023-02-16T14:57:23.626Z,44.26
2023-02-16T14:59:58.300Z,44.00
2023-02-16T15:02:33.078Z,44.40
2023-02-16T15:05:18.004Z,44.26
2023-02-16T15:07:50.601Z,44.18
2023-02-16T15:10:26.861Z,44.02
2023-02-16T15:12:56.371Z,44.42
2023-02-16T15:15:33.281Z,45.00
2023-02-16T15:18:01.908Z,44.58
2023-02-16T15:20:34.214Z,45.16
2023-02-16T15:23:04.254Z,45.05
2023-02-16T15:25:35.214Z,45.65
2023-02-16T15:28:06.044Z,45.87
2023-02-16T15:30:37.091Z,45.88
2023-02-16T15:33:08.017Z,45.62
2023-02-16T15:35:39.214Z,45.95
2023-02-16T15:38:19.902Z,46.04
2023-02-16T15:40:49.101Z,46.51
2023-02-16T15:43:27.040Z,46.91
2023-02-16T15:45:56.530Z,46.84
2023-02-16T15:48:29.425Z,46.83
2023-02-16T15:51:02.754Z,47.14
2023-02-16T15:53:58.109Z,47.40
2023-02-16T15:56:39.337Z,48.02
2023-02-16T15:59:23.692Z,47.97
2023-02-16T16:02:00.578Z,48.77
2023-02-16T16:04:29.820Z,48.99
2023-02-16T16:07:00.117Z,49.36
2023-02-16T16:09:30.451Z,49.41
2023-02-16T16:12:01.099Z,49.76
2023-02-16T16:14:30.901Z,49.80
2023-02-16T16:17:21.155Z,49.75
2023-02-16T16:19:50.542Z,50.50
2023-02-16T16:22:33.161Z,50.28
2023-02-16T16:25:02.195Z,50.93
2023-02-16T16:27:32.601Z,51.45
2023-02-16T16:30:27.729Z,51.05
2023-02-16T16:33:07.748Z,51.22
2023-02-16T16:35:38.512Z,51.25
2023-02-16T16:38:10.338Z,51.49
2023-02-16T16:40:41.031Z,52.48
2023-02-16T16:43:17.670Z,52.71
2023-02-16T16:45:47.842Z,52.89
2023-02-16T16:48:21.644Z,53.68
2023-02-16T16:50:50.933Z,54.25
2023-02-16T16:53:45.375Z,54.02
2023-02-16T16:56:16.128Z,54.51
2023-02-16T16:58:44.922Z,55.20
2023-02-16T17:01:14.036Z,55.50
2023-02-16T17:03:43.910Z,56.46
2023-02-16T17:06:14.171Z,56.99
2023-02-16T17:08:42.930Z,57.29
2023-02-16T17:11:15.287Z,57.63
2023-02-16T17:13:43.867Z,57.73
2023-02-16T17:16:18.143Z,58.33
2023-02-16T17:18:47.671Z,58.54
2023-02-16T17:21:16.521Z,58.57
2023-02-16T17:23:52.546Z,58.65
2023-02-16T17:26:21.978Z,58.61
2023-02-16T17:28:50.426Z,58.87
2023-02-16T17:31:18.599Z,58.72
2023-02-16T17:33:48.288Z,59.33
2023-02-16T17:36:17.430Z,59.80
2023-02-16T17:38:46.286Z,60.69
2023-02-16T17:41:22.158Z,61.18
2023-02-16T17:43:50.576Z,61.73
2023-02-16T17:46:21.621Z,61.85
2023-02-16T17:48:53.582Z,62.66
2023-02-16T17:51:23.958Z,63.48
2023-02-16T17:53:53.543Z,63.60
2023-02-16T17:56:25.350Z,63.48
2023-02-16T17:58:54.707Z,64.02
2023-02-16T18:01:23.840Z,63.90
2023-02-16T18:03:55.177Z,65.10
2023-02-16T18:06:28.888Z,65.81
2023-02-16T18:08:57.476Z,65.77
2023-02-16T18:11:25.696Z,66.47
2023-02-16T18:13:54.051Z,66.17
2023-02-16T18:16:28.024Z,66.56
2023-02-16T18:19:01.019Z,66.76
2023-02-16T18:21:29.162Z,65.46
2023-02-16T18:23:57.331Z,64.28
2023-02-16T18:26:25.717Z,64.54
2023-02-16T18:28:53.981Z,64.81
2023-02-16T18:31:22.143Z,65.53
2023-02-16T18:33:51.244Z,65.63
2023-02-16T18:36:21.057Z,65.73
2023-02-16T18:38:49.773Z,66.04
2023-02-16T18:41:33.177Z,66.86
2023-02-16T18:44:01.597Z,67.14
2023-02-16T18:46:30.277Z,66.82
2023-02-16T18:48:58.718Z,66.44
2023-02-16T18:51:30.122Z,66.61
2023-02-16T18:53:58.611Z,66.63
2023-02-16T18:56:27.641Z,67.56
2023-02-16T18:58:59.398Z,67.72
2023-02-16T19:01:33.778Z,68.69
2023-02-16T19:04:03.543Z,68.50
2023-02-16T19:06:34.259Z,68.74
2023-02-16T19:09:04.163Z,69.22
2023-02-16T19:11:33.504Z,68.43
2023-02-16T19:14:02.310Z,68.62
2023-02-16T19:16:31.119Z,67.97
2023-02-16T19:19:03.635Z,69.02
2023-02-16T19:21:34.072Z,69.33
2023-02-16T19:24:04.217Z,69.52
2023-02-16T19:26:33.448Z,68.95
2023-02-16T19:29:06.797Z,69.58
2023-02-16T19:31:36.001Z,69.71
2023-02-16T19:34:04.669Z,69.18
2023-02-16T19:36:36.512Z,69.56
2023-02-16T19:39:05.987Z,69.83
2023-02-16T19:41:37.687Z,70.51
2023-02-16T19:44:07.311Z,70.13
2023-02-16T19:46:38.385Z,71.21
2023-02-16T19:49:07.450Z,71.51
2023-02-16T19:51:37.232Z,71.51
2023-02-16T19:54:05.524Z,71.26
2023-02-16T19:56:33.730Z,71.15
2023-02-16T19:59:02.743Z,71.88
2023-02-16T20:01:31.023Z,72.55
2023-02-16T20:04:00.316Z,72.60
2023-02-16T20:06:32.314Z,73.68
2023-02-16T20:09:02.394Z,73.31
2023-02-16T20:11:31.326Z,73.31
2023-02-16T20:13:59.972Z,74.22
2023-02-16T20:16:30.522Z,74.76
2023-02-16T20:18:59.242Z,75.73
2023-02-16T20:21:29.630Z,75.88
2023-02-16T20:24:00.083Z,76.35
2023-02-16T20:26:34.456Z,76.11
2023-02-16T20:29:03.663Z,76.35
2023-02-16T20:31:37.536Z,76.69
2023-02-16T20:34:07.402Z,76.79
2023-02-16T20:36:36.008Z,77.14
2023-02-16T20:39:05.400Z,77.09
2023-02-16T20:41:35.000Z,78.30
2023-02-16T20:44:03.900Z,78.38
2023-02-16T20:46:32.471Z,78.74
2023-02-16T20:49:00.696Z,79.03
2023-02-16T20:51:28.907Z,79.23
2023-02-16T20:53:57.076Z,78.75
2023-02-16T20:56:26.839Z,78.29
2023-02-16T20:58:58.607Z,79.16
2023-02-16T21:01:29.584Z,79.51
2023-02-16T21:03:58.853Z,79.95
2023-02-16T21:06:28.519Z,80.73
2023-02-16T21:08:56.908Z,80.94
2023-02-16T21:11:25.636Z,81.72
2023-02-16T21:13:53.778Z,81.37
2023-02-16T21:16:23.735Z,82.16
2023-02-16T21:18:52.384Z,83.22
2023-02-16T21:21:20.554Z,83.35
2023-02-16T21:23:51.261Z,84.00
2023-02-16T21:26:21.245Z,84.10
2023-02-16T21:28:50.305Z,83.44
2023-02-16T21:31:20.866Z,83.36
2023-02-16T21:33:51.102Z,84.17
2023-02-16T21:36:21.051Z,83.92
2023-02-16T21:38:49.826Z,84.76
2023-02-16T21:41:25.778Z,84.56
2023-02-16T21:43:55.927Z,85.78
2023-02-16T21:46:24.274Z,85.85
2023-02-16T21:48:52.754Z,86.74
2023-02-16T21:51:22.298Z,86.72
2023-02-16T21:53:50.410Z,85.36
2023-02-16T21:56:29.353Z,85.34
2023-02-16T21:58:57.559Z,85.10
2023-02-16T22:01:28.761Z,85.55
2023-02-16T22:04:00.386Z,85.42
2023-02-16T22:06:32.269Z,86.14
2023-02-16T22:09:00.854Z,85.73
2023-02-16T22:11:29.154Z,86.07
2023-02-16T22:13:59.090Z,86.05
2023-02-16T22:16:29.616Z,86.94
2023-02-16T22:19:00.557Z,86.31
2023-02-16T22:21:29.825Z,86.33
2023-02-16T22:24:00.845Z,87.68
2023-02-16T22:26:31.226Z,87.46
2023-02-16T22:28:59.957Z,88.20
2023-02-16T22:31:29.040Z,89.33
2023-02-16T22:33:59.294Z,89.36
2023-02-16T22:36:28.022Z,89.60
2023-02-16T22:38:56.553Z,90.25
2023-02-16T22:41:26.075Z,90.41
2023-02-16T22:43:55.533Z,90.78
2023-02-16T22:46:25.401Z,91.46
2023-02-16T22:48:53.708Z,91.86
2023-02-16T22:51:23.325Z,92.06
2023-02-16T22:53:51.528Z,91.53
2023-02-16T22:56:20.937Z,92.91
2023-02-16T22:58:49.200Z,92.81
2023-02-16T23:01:19.427Z,92.68
2023-02-16T23:03:48.824Z,93.38
2023-02-16T23:06:19.835Z,93.11
2023-02-16T23:08:53.766Z,93.35
2023-02-16T23:11:22.216Z,94.08
2023-02-16T23:13:50.588Z,94.07
2023-02-16T23:16:21.015Z,93.69
2023-02-16T23:18:50.266Z,93.62
2023-02-16T23:21:20.245Z,94.34
2023-02-16T23:23:51.320Z,94.23
2023-02-16T23:26:20.869Z,94.54
2023-02-16T23:28:51.887Z,94.98
2023-02-16T23:31:20.505Z,95.76
2023-02-16T23:33:49.499Z,96.38
2023-02-16T23:36:17.961Z,96.15
2023-02-16T23:38:46.038Z,96.40
2023-02-16T23:41:16.492Z,96.97
2023-02-16T23:43:44.574Z,97.30
2023-02-16T23:46:12.941Z,97.78
2023-02-16T23:48:40.966Z,98.30
2023-02-16T23:51:11.721Z,98.52
2023-02-16T23:53:40.547Z,98.46
2023-02-16T23:56:10.226Z,98.85
2023-02-16T23:58:42.317Z,99.04
